sensor_id;sensor_type;location;lat;lon;timestamp;temperature;humidity
17715;DHT22;8977;50.902;4.314;2023-03-01T00:01:28;6.00;99.90
17715;DHT22;8977;50.902;4.314;2023-03-01T00:03:57;6.00;99.90
17715;DHT22;8977;50.902;4.314;2023-03-01T00:06:25;6.00;99.90
17715;DHT22;8977;50.902;4.314;2023-03-01T00:08:53;6.00;99.90
17715;DHT22;8977;50.902;4.314;2023-03-01T00:11:25;6.00;99.90
17715;DHT22;8977;50.902;4.314;2023-03-01T00:13:55;5.90;99.90
17715;DHT22;8977;50.902;4.314;2023-03-01T00:16:25;6.00;99.90
17715;DHT22;8977;50.902;4.314;2023-03-01T00:18:53;6.00;99.90
17715;DHT22;8977;50.902;4.314;2023-03-01T00:21:21;5.90;99.90
17715;DHT22;8977;50.902;4.314;2023-03-01T00:23:49;5.90;99.90
17715;DHT22;8977;50.902;4.314;2023-03-01T00:26:17;5.90;99.90
17715;DHT22;8977;50.902;4.314;2023-03-01T00:28:46;5.90;99.90
17715;DHT22;8977;50.902;4.314;2023-03-01T00:31:14;5.90;99.90
17715;DHT22;8977;50.902;4.314;2023-03-01T00:33:42;5.80;99.90
17715;DHT22;8977;50.902;4.314;2023-03-01T00:36:11;5.80;99.90
17715;DHT22;8977;50.902;4.314;2023-03-01T00:38:40;5.80;99.90
17715;DHT22;8977;50.902;4.314;2023-03-01T00:41:09;5.80;99.90
17715;DHT22;8977;50.902;4.314;2023-03-01T00:43:36;5.80;99.90
17715;DHT22;8977;50.902;4.314;2023-03-01T00:46:09;5.80;99.90
17715;DHT22;8977;50.902;4.314;2023-03-01T00:48:36;5.70;99.90
17715;DHT22;8977;50.902;4.314;2023-03-01T00:51:08;5.80;99.90
17715;DHT22;8977;50.902;4.314;2023-03-01T00:53:36;5.70;99.90
17715;DHT22;8977;50.902;4.314;2023-03-01T00:56:04;5.70;99.90
17715;DHT22;8977;50.902;4.314;2023-03-01T00:58:31;5.70;99.90
17715;DHT22;8977;50.902;4.314;2023-03-01T01:00:58;5.70;99.90
17715;DHT22;8977;50.902;4.314;2023-03-01T01:03:27;5.60;99.90
17715;DHT22;8977;50.902;4.314;2023-03-01T01:05:54;5.60;99.90
17715;DHT22;8977;50.902;4.314;2023-03-01T01:08:21;5.60;99.90
17715;DHT22;8977;50.902;4.314;2023-03-01T01:10:48;5.60;99.90
17715;DHT22;8977;50.902;4.314;2023-03-01T01:13:15;5.70;99.90
17715;DHT22;8977;50.902;4.314;2023-03-01T01:15:42;5.60;99.90
17715;DHT22;8977;50.902;4.314;2023-03-01T01:18:09;5.60;99.90
17715;DHT22;8977;50.902;4.314;2023-03-01T01:20:37;5.60;99.90
17715;DHT22;8977;50.902;4.314;2023-03-01T01:23:05;5.60;99.90
17715;DHT22;8977;50.902;4.314;2023-03-01T01:25:37;5.60;99.90
17715;DHT22;8977;50.902;4.314;2023-03-01T01:28:04;5.70;99.90
17715;DHT22;8977;50.902;4.314;2023-03-01T01:30:31;5.60;99.90
17715;DHT22;8977;50.902;4.314;2023-03-01T01:32:58;5.60;99.90
17715;DHT22;8977;50.902;4.314;2023-03-01T01:35:25;5.60;99.90
17715;DHT22;8977;50.902;4.314;2023-03-01T01:37:53;5.60;99.90
17715;DHT22;8977;50.902;4.314;2023-03-01T01:40:23;5.60;99.90
17715;DHT22;8977;50.902;4.314;2023-03-01T01:42:50;5.60;99.90
17715;DHT22;8977;50.902;4.314;2023-03-01T01:45:28;5.60;99.90
17715;DHT22;8977;50.902;4.314;2023-03-01T01:47:58;5.50;99.90
17715;DHT22;8977;50.902;4.314;2023-03-01T01:50:26;5.50;99.90
17715;DHT22;8977;50.902;4.314;2023-03-01T01:53:07;5.40;99.90
17715;DHT22;8977;50.902;4.314;2023-03-01T01:55:37;5.40;99.90
17715;DHT22;8977;50.902;4.314;2023-03-01T01:58:08;5.40;99.90
17715;DHT22;8977;50.902;4.314;2023-03-01T02:00:37;5.50;99.90
17715;DHT22;8977;50.902;4.314;2023-03-01T02:03:09;5.50;99.90
17715;DHT22;8977;50.902;4.314;2023-03-01T02:05:40;5.40;99.90
17715;DHT22;8977;50.902;4.314;2023-03-01T02:08:13;5.50;99.90
17715;DHT22;8977;50.902;4.314;2023-03-01T02:10:41;5.40;99.90
17715;DHT22;8977;50.902;4.314;2023-03-01T02:13:09;5.40;99.90
17715;DHT22;8977;50.902;4.314;2023-03-01T02:15:38;5.40;99.90
17715;DHT22;8977;50.902;4.314;2023-03-01T02:18:06;5.40;99.90
17715;DHT22;8977;50.902;4.314;2023-03-01T02:20:40;5.40;99.90
17715;DHT22;8977;50.902;4.314;2023-03-01T02:23:13;5.40;99.90
17715;DHT22;8977;50.902;4.314;2023-03-01T02:25:47;5.40;99.90
17715;DHT22;8977;50.902;4.314;2023-03-01T02:28:25;5.40;99.90
17715;DHT22;8977;50.902;4.314;2023-03-01T02:30:53;5.40;99.90
17715;DHT22;8977;50.902;4.314;2023-03-01T02:33:39;5.40;99.90
17715;DHT22;8977;50.902;4.314;2023-03-01T02:36:09;5.30;99.90
17715;DHT22;8977;50.902;4.314;2023-03-01T02:38:39;5.30;99.90
17715;DHT22;8977;50.902;4.314;2023-03-01T02:41:07;5.30;99.90
17715;DHT22;8977;50.902;4.314;2023-03-01T02:43:36;5.30;99.90
17715;DHT22;8977;50.902;4.314;2023-03-01T02:46:05;5.30;99.90
17715;DHT22;8977;50.902;4.314;2023-03-01T02:48:40;5.30;99.90
17715;DHT22;8977;50.902;4.314;2023-03-01T02:51:17;5.30;99.90
17715;DHT22;8977;50.902;4.314;2023-03-01T02:53:52;5.30;99.90
17715;DHT22;8977;50.902;4.314;2023-03-01T02:56:21;5.30;99.90
17715;DHT22;8977;50.902;4.314;2023-03-01T02:58:50;5.30;99.90
17715;DHT22;8977;50.902;4.314;2023-03-01T03:01:17;5.20;99.90
17715;DHT22;8977;50.902;4.314;2023-03-01T03:03:44;5.20;99.90
17715;DHT22;8977;50.902;4.314;2023-03-01T03:06:11;5.20;99.90
17715;DHT22;8977;50.902;4.314;2023-03-01T03:08:38;5.20;99.90
17715;DHT22;8977;50.902;4.314;2023-03-01T03:11:05;5.10;99.90
17715;DHT22;8977;50.902;4.314;2023-03-01T03:13:32;5.20;99.90
17715;DHT22;8977;50.902;4.314;2023-03-01T03:16:02;5.20;99.90
17715;DHT22;8977;50.902;4.314;2023-03-01T03:18:29;5.20;99.90
17715;DHT22;8977;50.902;4.314;2023-03-01T03:20:56;5.20;99.90
17715;DHT22;8977;50.902;4.314;2023-03-01T03:23:23;5.20;99.90
17715;DHT22;8977;50.902;4.314;2023-03-01T03:25:50;5.20;99.90
17715;DHT22;8977;50.902;4.314;2023-03-01T03:28:18;5.20;99.90
17715;DHT22;8977;50.902;4.314;2023-03-01T03:30:45;5.20;99.90
17715;DHT22;8977;50.902;4.314;2023-03-01T03:33:13;5.20;99.90
17715;DHT22;8977;50.902;4.314;2023-03-01T03:35:46;5.20;99.90
17715;DHT22;8977;50.902;4.314;2023-03-01T03:38:15;5.20;99.90
17715;DHT22;8977;50.902;4.314;2023-03-01T03:40:44;5.20;99.90
17715;DHT22;8977;50.902;4.314;2023-03-01T03:43:13;5.20;99.90
17715;DHT22;8977;50.902;4.314;2023-03-01T03:45:44;5.20;99.90
17715;DHT22;8977;50.902;4.314;2023-03-01T03:48:12;5.10;99.90
17715;DHT22;8977;50.902;4.314;2023-03-01T03:50:40;5.20;99.90
17715;DHT22;8977;50.902;4.314;2023-03-01T03:53:09;5.20;99.90
17715;DHT22;8977;50.902;4.314;2023-03-01T03:55:36;5.20;99.90
17715;DHT22;8977;50.902;4.314;2023-03-01T03:58:06;5.20;99.90
17715;DHT22;8977;50.902;4.314;2023-03-01T04:00:34;5.20;99.90
17715;DHT22;8977;50.902;4.314;2023-03-01T04:03:01;5.20;99.90
17715;DHT22;8977;50.902;4.314;2023-03-01T04:05:30;5.20;99.90
17715;DHT22;8977;50.902;4.314;2023-03-01T04:07:57;5.10;99.90
17715;DHT22;8977;50.902;4.314;2023-03-01T04:10:35;5.20;99.90
17715;DHT22;8977;50.902;4.314;2023-03-01T04:13:03;5.10;99.90
17715;DHT22;8977;50.902;4.314;2023-03-01T04:15:31;5.10;99.90
17715;DHT22;8977;50.902;4.314;2023-03-01T04:17:59;5.10;99.90
17715;DHT22;8977;50.902;4.314;2023-03-01T04:20:28;5.20;99.90
17715;DHT22;8977;50.902;4.314;2023-03-01T04:23:01;5.10;99.90
17715;DHT22;8977;50.902;4.314;2023-03-01T04:25:37;5.10;99.90
17715;DHT22;8977;50.902;4.314;2023-03-01T04:28:04;5.10;99.90
17715;DHT22;8977;50.902;4.314;2023-03-01T04:30:31;5.00;99.90
17715;DHT22;8977;50.902;4.314;2023-03-01T04:33:02;5.10;99.90
17715;DHT22;8977;50.902;4.314;2023-03-01T04:35:30;5.00;99.90
17715;DHT22;8977;50.902;4.314;2023-03-01T04:37:57;5.00;99.90
17715;DHT22;8977;50.902;4.314;2023-03-01T04:40:25;5.00;99.90
17715;DHT22;8977;50.902;4.314;2023-03-01T04:42:52;5.00;99.90
17715;DHT22;8977;50.902;4.314;2023-03-01T04:45:19;4.90;99.90
17715;DHT22;8977;50.902;4.314;2023-03-01T04:47:46;4.90;99.90
17715;DHT22;8977;50.902;4.314;2023-03-01T04:50:15;4.90;99.90
17715;DHT22;8977;50.902;4.314;2023-03-01T04:52:47;4.90;99.90
17715;DHT22;8977;50.902;4.314;2023-03-01T04:55:14;4.90;99.90
17715;DHT22;8977;50.902;4.314;2023-03-01T04:57:43;4.90;99.90
17715;DHT22;8977;50.902;4.314;2023-03-01T05:00:12;4.90;99.90
17715;DHT22;8977;50.902;4.314;2023-03-01T05:02:51;4.90;99.90
17715;DHT22;8977;50.902;4.314;2023-03-01T05:05:24;4.90;99.90
17715;DHT22;8977;50.902;4.314;2023-03-01T05:07:53;4.90;99.90
17715;DHT22;8977;50.902;4.314;2023-03-01T05:10:20;4.90;99.90
17715;DHT22;8977;50.902;4.314;2023-03-01T05:12:50;4.80;99.90
17715;DHT22;8977;50.902;4.314;2023-03-01T05:15:17;4.80;99.90
17715;DHT22;8977;50.902;4.314;2023-03-01T05:17:44;4.80;99.90
17715;DHT22;8977;50.902;4.314;2023-03-01T05:20:14;4.80;99.90
17715;DHT22;8977;50.902;4.314;2023-03-01T05:22:43;4.90;99.90
17715;DHT22;8977;50.902;4.314;2023-03-01T05:25:10;4.80;99.90
17715;DHT22;8977;50.902;4.314;2023-03-01T05:27:39;4.90;99.90
17715;DHT22;8977;50.902;4.314;2023-03-01T05:30:09;4.80;99.90
17715;DHT22;8977;50.902;4.314;2023-03-01T05:32:44;4.80;99.90
17715;DHT22;8977;50.902;4.314;2023-03-01T05:35:12;4.80;99.90
17715;DHT22;8977;50.902;4.314;2023-03-01T05:37:44;4.80;99.90
17715;DHT22;8977;50.902;4.314;2023-03-01T05:40:13;4.80;99.90
17715;DHT22;8977;50.902;4.314;2023-03-01T05:42:46;4.80;99.90
17715;DHT22;8977;50.902;4.314;2023-03-01T05:45:15;4.70;99.90
17715;DHT22;8977;50.902;4.314;2023-03-01T05:47:44;4.70;99.90
17715;DHT22;8977;50.902;4.314;2023-03-01T05:50:13;4.70;99.90
17715;DHT22;8977;50.902;4.314;2023-03-01T05:52:45;4.70;99.90
17715;DHT22;8977;50.902;4.314;2023-03-01T05:55:11;4.80;99.90
17715;DHT22;8977;50.902;4.314;2023-03-01T05:57:38;4.70;99.90
17715;DHT22;8977;50.902;4.314;2023-03-01T06:00:08;4.70;99.90
17715;DHT22;8977;50.902;4.314;2023-03-01T06:02:40;4.70;99.90
17715;DHT22;8977;50.902;4.314;2023-03-01T06:05:08;4.70;99.90
17715;DHT22;8977;50.902;4.314;2023-03-01T06:07:36;4.70;99.90
17715;DHT22;8977;50.902;4.314;2023-03-01T06:10:04;4.80;99.90
17715;DHT22;8977;50.902;4.314;2023-03-01T06:12:31;4.70;99.90
17715;DHT22;8977;50.902;4.314;2023-03-01T06:14:58;4.70;99.90
17715;DHT22;8977;50.902;4.314;2023-03-01T06:17:25;4.70;99.90
17715;DHT22;8977;50.902;4.314;2023-03-01T06:19:53;4.70;99.90
17715;DHT22;8977;50.902;4.314;2023-03-01T06:22:20;4.70;99.90
17715;DHT22;8977;50.902;4.314;2023-03-01T06:24:47;4.60;99.90
17715;DHT22;8977;50.902;4.314;2023-03-01T06:27:14;4.60;99.90
17715;DHT22;8977;50.902;4.314;2023-03-01T06:29:41;4.60;99.90
17715;DHT22;8977;50.902;4.314;2023-03-01T06:32:08;4.60;99.90
17715;DHT22;8977;50.902;4.314;2023-03-01T06:34:35;4.60;99.90
17715;DHT22;8977;50.902;4.314;2023-03-01T06:37:03;4.60;99.90
17715;DHT22;8977;50.902;4.314;2023-03-01T06:39:30;4.70;99.90
17715;DHT22;8977;50.902;4.314;2023-03-01T06:41:57;4.60;99.90
17715;DHT22;8977;50.902;4.314;2023-03-01T06:44:24;4.60;99.90
17715;DHT22;8977;50.902;4.314;2023-03-01T06:46:52;4.60;99.90
17715;DHT22;8977;50.902;4.314;2023-03-01T06:49:18;4.60;99.90
17715;DHT22;8977;50.902;4.314;2023-03-01T06:51:46;4.50;99.90
17715;DHT22;8977;50.902;4.314;2023-03-01T06:54:14;4.60;99.90
17715;DHT22;8977;50.902;4.314;2023-03-01T06:56:43;4.50;99.90
17715;DHT22;8977;50.902;4.314;2023-03-01T06:59:33;4.50;99.90
17715;DHT22;8977;50.902;4.314;2023-03-01T07:02:00;4.50;99.90
17715;DHT22;8977;50.902;4.314;2023-03-01T07:04:27;4.60;99.90
17715;DHT22;8977;50.902;4.314;2023-03-01T07:06:56;4.60;99.90
17715;DHT22;8977;50.902;4.314;2023-03-01T07:09:24;4.50;99.90
17715;DHT22;8977;50.902;4.314;2023-03-01T07:11:51;4.60;99.90
17715;DHT22;8977;50.902;4.314;2023-03-01T07:14:20;4.60;99.90
17715;DHT22;8977;50.902;4.314;2023-03-01T07:16:49;4.50;99.90
17715;DHT22;8977;50.902;4.314;2023-03-01T07:19:16;4.50;99.90
17715;DHT22;8977;50.902;4.314;2023-03-01T07:21:43;4.50;99.90
17715;DHT22;8977;50.902;4.314;2023-03-01T07:24:10;4.60;99.90
17715;DHT22;8977;50.902;4.314;2023-03-01T07:26:39;4.70;99.90
17715;DHT22;8977;50.902;4.314;2023-03-01T07:29:07;4.60;99.90
17715;DHT22;8977;50.902;4.314;2023-03-01T07:31:34;4.60;99.90
17715;DHT22;8977;50.902;4.314;2023-03-01T07:34:01;4.60;99.90
17715;DHT22;8977;50.902;4.314;2023-03-01T07:36:28;4.70;99.90
17715;DHT22;8977;50.902;4.314;2023-03-01T07:38:55;4.80;99.90
17715;DHT22;8977;50.902;4.314;2023-03-01T07:41:23;4.90;99.90
17715;DHT22;8977;50.902;4.314;2023-03-01T07:43:51;4.90;99.90
17715;DHT22;8977;50.902;4.314;2023-03-01T07:46:18;4.90;99.90
17715;DHT22;8977;50.902;4.314;2023-03-01T07:48:45;4.90;99.90
17715;DHT22;8977;50.902;4.314;2023-03-01T07:51:11;4.90;99.90
17715;DHT22;8977;50.902;4.314;2023-03-01T07:53:38;4.90;99.90
17715;DHT22;8977;50.902;4.314;2023-03-01T07:56:07;4.90;99.90
17715;DHT22;8977;50.902;4.314;2023-03-01T07:58:35;4.80;99.90
17715;DHT22;8977;50.902;4.314;2023-03-01T08:01:03;4.90;99.90
17715;DHT22;8977;50.902;4.314;2023-03-01T08:03:31;5.00;99.90
17715;DHT22;8977;50.902;4.314;2023-03-01T08:05:59;5.00;99.90
17715;DHT22;8977;50.902;4.314;2023-03-01T08:08:26;5.00;99.90
17715;DHT22;8977;50.902;4.314;2023-03-01T08:10:56;5.00;99.90
17715;DHT22;8977;50.902;4.314;2023-03-01T08:13:23;5.00;99.90
17715;DHT22;8977;50.902;4.314;2023-03-01T08:15:50;5.10;99.90
17715;DHT22;8977;50.902;4.314;2023-03-01T08:18:19;5.20;99.90
17715;DHT22;8977;50.902;4.314;2023-03-01T08:20:46;5.20;99.90
17715;DHT22;8977;50.902;4.314;2023-03-01T08:23:13;5.20;99.90
17715;DHT22;8977;50.902;4.314;2023-03-01T08:25:40;5.20;99.90
17715;DHT22;8977;50.902;4.314;2023-03-01T08:28:07;5.30;99.90
17715;DHT22;8977;50.902;4.314;2023-03-01T08:30:34;5.30;99.90
17715;DHT22;8977;50.902;4.314;2023-03-01T08:33:01;5.20;99.90
17715;DHT22;8977;50.902;4.314;2023-03-01T08:35:29;5.40;99.90
17715;DHT22;8977;50.902;4.314;2023-03-01T08:37:56;5.40;99.90
17715;DHT22;8977;50.902;4.314;2023-03-01T08:40:23;5.40;99.90
17715;DHT22;8977;50.902;4.314;2023-03-01T08:42:50;5.50;99.90
17715;DHT22;8977;50.902;4.314;2023-03-01T08:45:16;5.50;99.90
17715;DHT22;8977;50.902;4.314;2023-03-01T08:47:44;5.50;99.90
17715;DHT22;8977;50.902;4.314;2023-03-01T08:50:11;5.60;99.90
17715;DHT22;8977;50.902;4.314;2023-03-01T08:52:39;5.60;99.90
17715;DHT22;8977;50.902;4.314;2023-03-01T08:55:07;5.60;99.90
17715;DHT22;8977;50.902;4.314;2023-03-01T08:57:34;5.80;99.90
17715;DHT22;8977;50.902;4.314;2023-03-01T09:00:03;5.70;99.90
17715;DHT22;8977;50.902;4.314;2023-03-01T09:02:34;5.80;99.90
17715;DHT22;8977;50.902;4.314;2023-03-01T09:05:00;5.90;99.90
17715;DHT22;8977;50.902;4.314;2023-03-01T09:07:27;5.90;99.90
17715;DHT22;8977;50.902;4.314;2023-03-01T09:09:56;6.00;99.90
17715;DHT22;8977;50.902;4.314;2023-03-01T09:12:22;6.00;99.90
17715;DHT22;8977;50.902;4.314;2023-03-01T09:14:50;6.00;99.90
17715;DHT22;8977;50.902;4.314;2023-03-01T09:17:17;6.20;99.90
17715;DHT22;8977;50.902;4.314;2023-03-01T09:19:47;6.20;99.90
17715;DHT22;8977;50.902;4.314;2023-03-01T09:22:14;6.30;99.90
17715;DHT22;8977;50.902;4.314;2023-03-01T09:24:42;6.30;99.90
17715;DHT22;8977;50.902;4.314;2023-03-01T09:27:10;6.40;99.90
17715;DHT22;8977;50.902;4.314;2023-03-01T09:29:38;6.40;99.90
17715;DHT22;8977;50.902;4.314;2023-03-01T09:32:05;6.40;99.90
17715;DHT22;8977;50.902;4.314;2023-03-01T09:34:33;6.50;99.90
17715;DHT22;8977;50.902;4.314;2023-03-01T09:37:20;6.50;99.90
17715;DHT22;8977;50.902;4.314;2023-03-01T09:39:47;6.60;99.90
17715;DHT22;8977;50.902;4.314;2023-03-01T09:42:15;6.70;99.90
17715;DHT22;8977;50.902;4.314;2023-03-01T09:44:45;6.70;99.90
17715;DHT22;8977;50.902;4.314;2023-03-01T09:47:18;6.70;99.90
17715;DHT22;8977;50.902;4.314;2023-03-01T09:49:47;6.80;99.90
17715;DHT22;8977;50.902;4.314;2023-03-01T09:52:25;6.80;99.90
17715;DHT22;8977;50.902;4.314;2023-03-01T09:54:56;6.80;99.90
17715;DHT22;8977;50.902;4.314;2023-03-01T09:57:33;6.80;99.90
17715;DHT22;8977;50.902;4.314;2023-03-01T10:00:22;6.90;99.90
17715;DHT22;8977;50.902;4.314;2023-03-01T10:02:57;7.00;99.90
17715;DHT22;8977;50.902;4.314;2023-03-01T10:05:33;7.10;99.90
17715;DHT22;8977;50.902;4.314;2023-03-01T10:08:14;7.20;99.90
17715;DHT22;8977;50.902;4.314;2023-03-01T10:10:47;7.30;99.90
17715;DHT22;8977;50.902;4.314;2023-03-01T10:13:19;7.30;99.90
17715;DHT22;8977;50.902;4.314;2023-03-01T10:15:50;7.40;99.90
17715;DHT22;8977;50.902;4.314;2023-03-01T10:18:22;7.40;99.90
17715;DHT22;8977;50.902;4.314;2023-03-01T10:20:53;7.50;99.90
17715;DHT22;8977;50.902;4.314;2023-03-01T10:23:22;7.60;99.90
17715;DHT22;8977;50.902;4.314;2023-03-01T10:26:07;7.60;99.90
17715;DHT22;8977;50.902;4.314;2023-03-01T10:28:42;7.60;99.90
17715;DHT22;8977;50.902;4.314;2023-03-01T10:31:12;7.70;99.90
17715;DHT22;8977;50.902;4.314;2023-03-01T10:33:40;7.60;99.90
17715;DHT22;8977;50.902;4.314;2023-03-01T10:36:08;7.80;99.90
17715;DHT22;8977;50.902;4.314;2023-03-01T10:38:48;7.80;99.80
17715;DHT22;8977;50.902;4.314;2023-03-01T10:41:18;7.90;99.70
17715;DHT22;8977;50.902;4.314;2023-03-01T10:43:47;7.80;99.70
17715;DHT22;8977;50.902;4.314;2023-03-01T10:46:26;7.90;99.80
17715;DHT22;8977;50.902;4.314;2023-03-01T10:49:10;8.00;99.70
17715;DHT22;8977;50.902;4.314;2023-03-01T10:51:39;8.20;98.90
17715;DHT22;8977;50.902;4.314;2023-03-01T10:54:16;8.10;98.90
17715;DHT22;8977;50.902;4.314;2023-03-01T10:56:47;8.10;99.20
17715;DHT22;8977;50.902;4.314;2023-03-01T10:59:26;8.10;99.10
17715;DHT22;8977;50.902;4.314;2023-03-01T11:02:15;8.10;99.20
17715;DHT22;8977;50.902;4.314;2023-03-01T11:04:57;8.20;99.20
17715;DHT22;8977;50.902;4.314;2023-03-01T11:07:25;8.20;98.80
17715;DHT22;8977;50.902;4.314;2023-03-01T11:09:52;8.20;98.90
17715;DHT22;8977;50.902;4.314;2023-03-01T11:12:20;8.20;99.10
17715;DHT22;8977;50.902;4.314;2023-03-01T11:14:50;8.30;99.20
17715;DHT22;8977;50.902;4.314;2023-03-01T11:17:21;8.40;99.00
17715;DHT22;8977;50.902;4.314;2023-03-01T11:20:03;8.50;98.90
17715;DHT22;8977;50.902;4.314;2023-03-01T11:22:33;8.60;99.00
17715;DHT22;8977;50.902;4.314;2023-03-01T11:25:02;8.60;98.70
17715;DHT22;8977;50.902;4.314;2023-03-01T11:27:32;8.60;98.60
17715;DHT22;8977;50.902;4.314;2023-03-01T11:30:04;8.60;98.50
17715;DHT22;8977;50.902;4.314;2023-03-01T11:32:41;8.60;98.70
17715;DHT22;8977;50.902;4.314;2023-03-01T11:35:16;8.70;98.90
17715;DHT22;8977;50.902;4.314;2023-03-01T11:37:54;8.80;99.00
17715;DHT22;8977;50.902;4.314;2023-03-01T11:40:25;8.70;98.80
17715;DHT22;8977;50.902;4.314;2023-03-01T11:43:00;8.80;98.70
17715;DHT22;8977;50.902;4.314;2023-03-01T11:45:37;8.90;98.80
17715;DHT22;8977;50.902;4.314;2023-03-01T11:51:09;9.00;98.10
17715;DHT22;8977;50.902;4.314;2023-03-01T11:53:50;9.00;98.20
17715;DHT22;8977;50.902;4.314;2023-03-01T11:56:29;8.90;98.20
17715;DHT22;8977;50.902;4.314;2023-03-01T11:59:26;9.00;98.40
17715;DHT22;8977;50.902;4.314;2023-03-01T12:02:23;9.00;98.40
17715;DHT22;8977;50.902;4.314;2023-03-01T12:05:09;9.00;98.30
17715;DHT22;8977;50.902;4.314;2023-03-01T12:07:47;9.00;98.70
17715;DHT22;8977;50.902;4.314;2023-03-01T12:10:24;9.10;98.00
17715;DHT22;8977;50.902;4.314;2023-03-01T12:13:08;9.20;98.20
17715;DHT22;8977;50.902;4.314;2023-03-01T12:16:05;9.20;98.40
17715;DHT22;8977;50.902;4.314;2023-03-01T12:18:59;9.20;98.20
17715;DHT22;8977;50.902;4.314;2023-03-01T12:21:38;9.20;98.30
17715;DHT22;8977;50.902;4.314;2023-03-01T12:24:33;9.20;97.80
17715;DHT22;8977;50.902;4.314;2023-03-01T12:27:29;9.20;97.70
17715;DHT22;8977;50.902;4.314;2023-03-01T12:30:06;9.30;98.10
17715;DHT22;8977;50.902;4.314;2023-03-01T12:32:47;9.30;98.00
17715;DHT22;8977;50.902;4.314;2023-03-01T12:35:32;9.40;97.90
17715;DHT22;8977;50.902;4.314;2023-03-01T12:38:13;9.50;97.50
17715;DHT22;8977;50.902;4.314;2023-03-01T12:41:11;9.40;97.40
17715;DHT22;8977;50.902;4.314;2023-03-01T12:43:51;9.50;97.30
17715;DHT22;8977;50.902;4.314;2023-03-01T12:46:32;9.50;97.30
17715;DHT22;8977;50.902;4.314;2023-03-01T12:49:08;9.50;97.50
17715;DHT22;8977;50.902;4.314;2023-03-01T12:51:38;9.50;96.60
17715;DHT22;8977;50.902;4.314;2023-03-01T12:54:14;9.60;96.70
17715;DHT22;8977;50.902;4.314;2023-03-01T12:56:42;9.60;96.90
17715;DHT22;8977;50.902;4.314;2023-03-01T12:59:15;9.60;96.70
17715;DHT22;8977;50.902;4.314;2023-03-01T13:01:51;9.70;96.30
17715;DHT22;8977;50.902;4.314;2023-03-01T13:04:40;9.70;96.40
17715;DHT22;8977;50.902;4.314;2023-03-01T13:07:23;9.90;96.50
17715;DHT22;8977;50.902;4.314;2023-03-01T13:09:58;9.90;96.60
17715;DHT22;8977;50.902;4.314;2023-03-01T13:12:52;10.00;96.60
17715;DHT22;8977;50.902;4.314;2023-03-01T13:15:31;10.10;96.20
17715;DHT22;8977;50.902;4.314;2023-03-01T13:17:59;10.20;96.00
17715;DHT22;8977;50.902;4.314;2023-03-01T13:20:30;10.30;96.00
17715;DHT22;8977;50.902;4.314;2023-03-01T13:23:06;10.40;96.10
17715;DHT22;8977;50.902;4.314;2023-03-01T13:25:34;10.50;95.80
17715;DHT22;8977;50.902;4.314;2023-03-01T13:31:11;10.60;95.70
17715;DHT22;8977;50.902;4.314;2023-03-01T13:33:58;10.70;95.20
17715;DHT22;8977;50.902;4.314;2023-03-01T13:36:45;10.90;95.10
17715;DHT22;8977;50.902;4.314;2023-03-01T13:39:30;10.90;94.90
17715;DHT22;8977;50.902;4.314;2023-03-01T13:42:01;10.90;94.80
17715;DHT22;8977;50.902;4.314;2023-03-01T13:44:32;10.80;95.50
17715;DHT22;8977;50.902;4.314;2023-03-01T13:47:08;10.70;95.20
17715;DHT22;8977;50.902;4.314;2023-03-01T13:49:43;10.60;95.40
17715;DHT22;8977;50.902;4.314;2023-03-01T13:52:37;10.40;95.80
17715;DHT22;8977;50.902;4.314;2023-03-01T13:55:17;10.30;95.80
17715;DHT22;8977;50.902;4.314;2023-03-01T13:57:49;10.10;95.80
17715;DHT22;8977;50.902;4.314;2023-03-01T14:00:32;10.10;95.70
17715;DHT22;8977;50.902;4.314;2023-03-01T14:03:01;9.90;95.60
17715;DHT22;8977;50.902;4.314;2023-03-01T14:05:29;9.80;95.80
17715;DHT22;8977;50.902;4.314;2023-03-01T14:07:56;9.80;95.90
17715;DHT22;8977;50.902;4.314;2023-03-01T14:10:28;9.70;96.10
17715;DHT22;8977;50.902;4.314;2023-03-01T14:13:02;9.70;96.20
17715;DHT22;8977;50.902;4.314;2023-03-01T14:15:36;9.70;96.00
17715;DHT22;8977;50.902;4.314;2023-03-01T14:18:10;9.70;96.10
17715;DHT22;8977;50.902;4.314;2023-03-01T14:20:42;9.70;96.10
17715;DHT22;8977;50.902;4.314;2023-03-01T14:23:13;9.70;95.90
17715;DHT22;8977;50.902;4.314;2023-03-01T14:25:48;9.70;95.80
17715;DHT22;8977;50.902;4.314;2023-03-01T14:28:17;9.60;96.00
17715;DHT22;8977;50.902;4.314;2023-03-01T14:30:46;9.70;96.10
17715;DHT22;8977;50.902;4.314;2023-03-01T14:33:22;9.60;96.00
17715;DHT22;8977;50.902;4.314;2023-03-01T14:35:54;9.60;96.20
17715;DHT22;8977;50.902;4.314;2023-03-01T14:38:23;9.60;96.50
17715;DHT22;8977;50.902;4.314;2023-03-01T14:40:57;9.50;96.30
17715;DHT22;8977;50.902;4.314;2023-03-01T14:43:24;9.40;96.30
17715;DHT22;8977;50.902;4.314;2023-03-01T14:45:53;9.40;96.40
17715;DHT22;8977;50.902;4.314;2023-03-01T14:48:20;9.30;96.40
17715;DHT22;8977;50.902;4.314;2023-03-01T14:50:48;9.30;96.10
17715;DHT22;8977;50.902;4.314;2023-03-01T14:53:20;9.30;96.20
17715;DHT22;8977;50.902;4.314;2023-03-01T14:55:55;9.40;96.40
17715;DHT22;8977;50.902;4.314;2023-03-01T14:58:24;9.40;96.30
17715;DHT22;8977;50.902;4.314;2023-03-01T15:00:53;9.40;96.40
17715;DHT22;8977;50.902;4.314;2023-03-01T15:03:27;9.30;96.70
17715;DHT22;8977;50.902;4.314;2023-03-01T15:05:57;9.30;96.70
17715;DHT22;8977;50.902;4.314;2023-03-01T15:08:25;9.30;96.70
17715;DHT22;8977;50.902;4.314;2023-03-01T15:11:02;9.30;96.70
17715;DHT22;8977;50.902;4.314;2023-03-01T15:13:32;9.30;96.60
17715;DHT22;8977;50.902;4.314;2023-03-01T15:16:05;9.30;96.80
17715;DHT22;8977;50.902;4.314;2023-03-01T15:18:35;9.20;96.40
17715;DHT22;8977;50.902;4.314;2023-03-01T15:21:08;9.20;96.60
17715;DHT22;8977;50.902;4.314;2023-03-01T15:23:37;9.20;96.70
17715;DHT22;8977;50.902;4.314;2023-03-01T15:26:06;9.30;96.80
17715;DHT22;8977;50.902;4.314;2023-03-01T15:28:51;9.40;97.00
17715;DHT22;8977;50.902;4.314;2023-03-01T15:31:20;9.40;97.00
17715;DHT22;8977;50.902;4.314;2023-03-01T15:33:48;9.50;96.90
17715;DHT22;8977;50.902;4.314;2023-03-01T15:36:36;9.50;96.90
17715;DHT22;8977;50.902;4.314;2023-03-01T15:39:04;9.60;97.00
17715;DHT22;8977;50.902;4.314;2023-03-01T15:41:45;9.60;96.90
17715;DHT22;8977;50.902;4.314;2023-03-01T15:44:16;9.60;96.70
17715;DHT22;8977;50.902;4.314;2023-03-01T15:46:46;9.60;96.30
17715;DHT22;8977;50.902;4.314;2023-03-01T15:49:29;9.50;96.30
17715;DHT22;8977;50.902;4.314;2023-03-01T15:51:57;9.60;96.30
17715;DHT22;8977;50.902;4.314;2023-03-01T15:54:25;9.90;96.50
17715;DHT22;8977;50.902;4.314;2023-03-01T15:56:55;10.20;96.20
17715;DHT22;8977;50.902;4.314;2023-03-01T15:59:22;10.40;96.00
17715;DHT22;8977;50.902;4.314;2023-03-01T16:01:49;10.40;95.80
17715;DHT22;8977;50.902;4.314;2023-03-01T16:04:17;10.40;95.80
17715;DHT22;8977;50.902;4.314;2023-03-01T16:06:48;10.30;95.80
17715;DHT22;8977;50.902;4.314;2023-03-01T16:09:20;10.20;95.90
17715;DHT22;8977;50.902;4.314;2023-03-01T16:11:48;10.20;96.00
17715;DHT22;8977;50.902;4.314;2023-03-01T16:14:16;10.10;96.10
17715;DHT22;8977;50.902;4.314;2023-03-01T16:16:44;10.00;96.20
17715;DHT22;8977;50.902;4.314;2023-03-01T16:19:11;9.90;96.20
17715;DHT22;8977;50.902;4.314;2023-03-01T16:21:38;9.80;96.20
17715;DHT22;8977;50.902;4.314;2023-03-01T16:24:06;9.70;96.40
17715;DHT22;8977;50.902;4.314;2023-03-01T16:26:33;9.60;96.60
17715;DHT22;8977;50.902;4.314;2023-03-01T16:29:00;9.60;96.70
17715;DHT22;8977;50.902;4.314;2023-03-01T16:31:28;9.50;96.50